Morton, Mississippi
Current Conditions -  °F | °C
As of 1:54 PM on Friday 24 Oct 2014 (Local Time) from KJAN Reporting Station
Clear Clear  
Wind Chill: 73°   Ceiling: Unl
Heat Index: 73°   Visibility: 10mi
Dew Point: 43°   Wind: 6mph
Humidity: 34%   Direction: 20°NNE
Pressure: 30.08"   Gusts: NA
Location:  32.35°N, 89.65°W
Report Text: KJAN 241854Z 02005KT 10SM CLR 23/06 A3008 RMK AO2 SLP185 T02280061
Loading
Personal Weather Stations






























Interactive Weather Map
Tropical Storm Tracking
New forecast layout! Learn more

10-Day Weather Forecast

Advertisements
Track Severe Weather on mobile